Terminal Aerodrome Forecast
Issued by NWS Honolulu, HI

Home | Current Version | Previous Version | Text Only | Print | Product List | Glossary On
Versions: 1 2 3 4 5 6 7 8 9 10 11 12 13 14 15 16 17 18 19 20 21 22 23 24 25 26 27 28 29 30
000
FTPA31 PHFO 210306 AAA
TAFHNL
TAF AMD
PHNL 210306Z 2103/2206 18005KT P6SM FEW025 SCT035
     FM210600 01004KT P6SM FEW030
     FM212000 10009KT P6SM FEW030 SCT040
     FM220500 03004KT P6SM FEW035=

USA.gov is the U.S. government's official web portal to all federal, state and local government web resources and services.